Terminal Aerodrome Forecast
Issued by NWS

Home | Current Version | Previous Version | Text Only | Print | Product List | Glossary Off
Versions: 1 2 3 4 5 6 7 8 9 10 11 12 13 14 15 16

000
FTUS43 KGRB 271100
TAFAUW
TAF
KAUW 271135Z 2712/2812 30011KT P6SM VCSH SCT035 BKN080
      TEMPO 2714/2718 3SM -SHRA BR SCT020 BKN030
     FM271900 33012G19KT P6SM VCSH SCT015 BKN040
     FM272100 34012G16KT P6SM SCT050 BKN100
     FM280100 34009KT P6SM SKC=

USA.gov is the U.S. government's official web portal to all federal, state and local government web resources and services.